sensor_id;sensor_type;location;lat;lon;timestamp;pressure;altitude;pressure_sealevel;temperature;humidity
15662;BME280;7931;52.274;10.470;2022-09-03T00:01:52;100676.81;;;15.62;62.73
15662;BME280;7931;52.274;10.470;2022-09-03T00:04:46;100677.66;;;15.53;62.74
15662;BME280;7931;52.274;10.470;2022-09-03T00:07:19;100674.81;;;15.54;62.44
15662;BME280;7931;52.274;10.470;2022-09-03T00:09:56;100670.88;;;15.58;62.69
15662;BME280;7931;52.274;10.470;2022-09-03T00:12:27;100668.03;;;15.50;63.24
15662;BME280;7931;52.274;10.470;2022-09-03T00:15:01;100655.63;;;15.49;62.70
15662;BME280;7931;52.274;10.470;2022-09-03T00:17:37;100660.72;;;15.42;63.13
15662;BME280;7931;52.274;10.470;2022-09-03T00:20:10;100664.78;;;15.37;63.40
15662;BME280;7931;52.274;10.470;2022-09-03T00:22:46;100654.63;;;15.40;63.02
15662;BME280;7931;52.274;10.470;2022-09-03T00:25:17;100660.84;;;15.41;63.00
15662;BME280;7931;52.274;10.470;2022-09-03T00:27:47;100657.03;;;15.34;63.35
15662;BME280;7931;52.274;10.470;2022-09-03T00:30:15;100667.03;;;15.32;63.70
15662;BME280;7931;52.274;10.470;2022-09-03T00:32:44;100655.75;;;15.19;63.87
15662;BME280;7931;52.274;10.470;2022-09-03T00:35:28;100658.56;;;15.17;64.11
15662;BME280;7931;52.274;10.470;2022-09-03T00:37:56;100650.94;;;15.12;64.52
15662;BME280;7931;52.274;10.470;2022-09-03T00:40:46;100652.66;;;15.13;64.16
15662;BME280;7931;52.274;10.470;2022-09-03T00:43:35;100650.50;;;14.98;65.84
15662;BME280;7931;52.274;10.470;2022-09-03T00:46:19;100647.97;;;14.96;66.29
15662;BME280;7931;52.274;10.470;2022-09-03T00:49:01;100652.16;;;14.89;66.00
15662;BME280;7931;52.274;10.470;2022-09-03T00:51:34;100649.94;;;14.94;65.88
15662;BME280;7931;52.274;10.470;2022-09-03T00:54:11;100647.25;;;14.84;66.42
15662;BME280;7931;52.274;10.470;2022-09-03T00:57:02;100643.44;;;14.87;66.52
15662;BME280;7931;52.274;10.470;2022-09-03T01:00:07;100648.06;;;14.75;67.01
15662;BME280;7931;52.274;10.470;2022-09-03T01:02:56;100656.63;;;14.69;67.36
15662;BME280;7931;52.274;10.470;2022-09-03T01:05:48;100646.50;;;14.73;67.03
15662;BME280;7931;52.274;10.470;2022-09-03T01:08:56;100648.47;;;14.71;67.00
15662;BME280;7931;52.274;10.470;2022-09-03T01:11:36;100647.06;;;14.67;67.24
15662;BME280;7931;52.274;10.470;2022-09-03T01:17:02;100649.31;;;14.71;67.53
15662;BME280;7931;52.274;10.470;2022-09-03T01:19:46;100648.09;;;14.85;66.50
15662;BME280;7931;52.274;10.470;2022-09-03T01:25:11;100651.88;;;14.82;66.61
15662;BME280;7931;52.274;10.470;2022-09-03T01:28:07;100643.03;;;14.91;66.51
15662;BME280;7931;52.274;10.470;2022-09-03T01:30:43;100648.13;;;14.95;66.20
15662;BME280;7931;52.274;10.470;2022-09-03T01:33:34;100647.81;;;14.88;66.43
15662;BME280;7931;52.274;10.470;2022-09-03T01:36:14;100656.41;;;14.91;66.33
15662;BME280;7931;52.274;10.470;2022-09-03T01:38:53;100652.50;;;15.05;66.13
15662;BME280;7931;52.274;10.470;2022-09-03T01:41:42;100654.84;;;14.89;66.17
15662;BME280;7931;52.274;10.470;2022-09-03T01:53:12;100669.09;;;14.80;66.44
15662;BME280;7931;52.274;10.470;2022-09-03T01:58:38;100655.69;;;14.70;67.08
15662;BME280;7931;52.274;10.470;2022-09-03T02:01:26;100665.63;;;14.58;68.02
15662;BME280;7931;52.274;10.470;2022-09-03T02:03:55;100661.34;;;14.46;68.32
15662;BME280;7931;52.274;10.470;2022-09-03T02:06:25;100657.88;;;14.55;68.01
15662;BME280;7931;52.274;10.470;2022-09-03T02:08:52;100657.94;;;14.44;68.51
15662;BME280;7931;52.274;10.470;2022-09-03T02:11:17;100661.34;;;14.46;68.61
15662;BME280;7931;52.274;10.470;2022-09-03T02:13:47;100665.97;;;14.75;67.31
15662;BME280;7931;52.274;10.470;2022-09-03T02:16:15;100673.75;;;14.47;68.66
15662;BME280;7931;52.274;10.470;2022-09-03T02:18:49;100661.84;;;14.40;69.16
15662;BME280;7931;52.274;10.470;2022-09-03T02:21:19;100649.75;;;14.36;69.75
15662;BME280;7931;52.274;10.470;2022-09-03T02:23:46;100656.72;;;14.48;68.44
15662;BME280;7931;52.274;10.470;2022-09-03T02:26:15;100658.44;;;14.28;70.19
15662;BME280;7931;52.274;10.470;2022-09-03T02:28:42;100659.53;;;14.26;71.07
15662;BME280;7931;52.274;10.470;2022-09-03T02:31:09;100659.13;;;14.30;70.50
15662;BME280;7931;52.274;10.470;2022-09-03T02:33:37;100663.50;;;14.22;70.35
15662;BME280;7931;52.274;10.470;2022-09-03T02:36:05;100654.91;;;14.28;70.04
15662;BME280;7931;52.274;10.470;2022-09-03T02:38:30;100658.69;;;14.25;70.90
15662;BME280;7931;52.274;10.470;2022-09-03T02:40:56;100654.28;;;14.14;70.58
15662;BME280;7931;52.274;10.470;2022-09-03T02:43:31;100655.81;;;14.07;72.96
15662;BME280;7931;52.274;10.470;2022-09-03T02:46:03;100656.69;;;14.18;72.45
15662;BME280;7931;52.274;10.470;2022-09-03T02:48:29;100642.97;;;14.32;71.38
15662;BME280;7931;52.274;10.470;2022-09-03T02:50:55;100653.94;;;14.29;71.15
15662;BME280;7931;52.274;10.470;2022-09-03T02:53:20;100652.44;;;14.15;72.21
15662;BME280;7931;52.274;10.470;2022-09-03T02:55:46;100659.97;;;14.00;72.95
15662;BME280;7931;52.274;10.470;2022-09-03T02:58:12;100658.16;;;14.01;74.02
15662;BME280;7931;52.274;10.470;2022-09-03T03:00:37;100662.19;;;13.95;74.01
15662;BME280;7931;52.274;10.470;2022-09-03T03:03:04;100661.53;;;13.82;74.94
15662;BME280;7931;52.274;10.470;2022-09-03T03:05:50;100668.13;;;13.78;74.85
15662;BME280;7931;52.274;10.470;2022-09-03T03:08:18;100663.38;;;13.81;75.09
15662;BME280;7931;52.274;10.470;2022-09-03T03:10:50;100656.97;;;13.73;76.21
15662;BME280;7931;52.274;10.470;2022-09-03T03:13:16;100658.88;;;13.82;76.00
15662;BME280;7931;52.274;10.470;2022-09-03T03:15:42;100657.50;;;13.67;76.25
15662;BME280;7931;52.274;10.470;2022-09-03T03:18:09;100653.53;;;13.61;76.65
15662;BME280;7931;52.274;10.470;2022-09-03T03:20:37;100651.69;;;13.61;76.67
15662;BME280;7931;52.274;10.470;2022-09-03T03:23:03;100651.84;;;13.60;77.12
15662;BME280;7931;52.274;10.470;2022-09-03T03:25:34;100645.97;;;13.45;77.85
15662;BME280;7931;52.274;10.470;2022-09-03T03:28:00;100639.16;;;13.41;78.21
15662;BME280;7931;52.274;10.470;2022-09-03T03:30:26;100653.13;;;13.45;78.07
15662;BME280;7931;52.274;10.470;2022-09-03T03:32:53;100642.81;;;13.40;78.60
15662;BME280;7931;52.274;10.470;2022-09-03T03:35:19;100652.53;;;13.41;79.18
15662;BME280;7931;52.274;10.470;2022-09-03T03:37:44;100644.47;;;13.20;80.06
15662;BME280;7931;52.274;10.470;2022-09-03T03:40:10;100646.44;;;12.96;82.09
15662;BME280;7931;52.274;10.470;2022-09-03T03:42:36;100649.09;;;13.07;82.46
15662;BME280;7931;52.274;10.470;2022-09-03T03:45:03;100638.06;;;13.00;81.87
15662;BME280;7931;52.274;10.470;2022-09-03T03:47:28;100653.84;;;13.03;81.61
15662;BME280;7931;52.274;10.470;2022-09-03T03:49:57;100655.84;;;12.79;83.83
15662;BME280;7931;52.274;10.470;2022-09-03T03:52:23;100655.25;;;12.75;84.49
15662;BME280;7931;52.274;10.470;2022-09-03T03:54:49;100661.44;;;12.65;85.00
15662;BME280;7931;52.274;10.470;2022-09-03T03:57:16;100656.25;;;12.63;85.53
15662;BME280;7931;52.274;10.470;2022-09-03T03:59:41;100655.28;;;12.53;86.61
15662;BME280;7931;52.274;10.470;2022-09-03T04:02:07;100660.47;;;12.66;85.80
15662;BME280;7931;52.274;10.470;2022-09-03T04:04:33;100653.19;;;12.56;86.73
15662;BME280;7931;52.274;10.470;2022-09-03T04:06:59;100648.34;;;12.61;85.40
15662;BME280;7931;52.274;10.470;2022-09-03T04:09:24;100647.72;;;12.69;86.06
15662;BME280;7931;52.274;10.470;2022-09-03T04:11:49;100645.44;;;12.65;86.28
15662;BME280;7931;52.274;10.470;2022-09-03T04:14:15;100643.38;;;12.57;86.96
15662;BME280;7931;52.274;10.470;2022-09-03T04:16:42;100650.06;;;12.63;86.81
15662;BME280;7931;52.274;10.470;2022-09-03T04:19:11;100641.06;;;12.64;86.75
15662;BME280;7931;52.274;10.470;2022-09-03T04:21:37;100643.97;;;12.60;87.85
15662;BME280;7931;52.274;10.470;2022-09-03T04:24:04;100639.63;;;12.59;87.12
15662;BME280;7931;52.274;10.470;2022-09-03T04:26:31;100637.41;;;12.65;87.38
15662;BME280;7931;52.274;10.470;2022-09-03T04:29:04;100636.81;;;12.61;88.53
15662;BME280;7931;52.274;10.470;2022-09-03T04:31:31;100645.19;;;12.56;88.71
15662;BME280;7931;52.274;10.470;2022-09-03T04:33:56;100639.38;;;12.63;88.03
15662;BME280;7931;52.274;10.470;2022-09-03T04:36:24;100640.22;;;12.63;88.03
15662;BME280;7931;52.274;10.470;2022-09-03T04:38:52;100635.97;;;12.60;88.05
15662;BME280;7931;52.274;10.470;2022-09-03T04:41:24;100636.72;;;12.63;88.34
15662;BME280;7931;52.274;10.470;2022-09-03T04:43:51;100638.19;;;12.44;89.23
15662;BME280;7931;52.274;10.470;2022-09-03T04:46:18;100639.63;;;12.37;90.81
15662;BME280;7931;52.274;10.470;2022-09-03T04:48:47;100648.34;;;12.28;94.23
15662;BME280;7931;52.274;10.470;2022-09-03T04:51:17;100651.16;;;12.26;93.88
15662;BME280;7931;52.274;10.470;2022-09-03T04:53:45;100644.00;;;12.27;94.05
15662;BME280;7931;52.274;10.470;2022-09-03T04:56:17;100649.81;;;12.32;92.44
15662;BME280;7931;52.274;10.470;2022-09-03T04:58:44;100653.59;;;12.29;93.31
15662;BME280;7931;52.274;10.470;2022-09-03T05:01:12;100645.22;;;12.12;95.87
15662;BME280;7931;52.274;10.470;2022-09-03T05:03:39;100640.75;;;12.23;95.20
15662;BME280;7931;52.274;10.470;2022-09-03T05:06:04;100647.03;;;12.22;96.68
15662;BME280;7931;52.274;10.470;2022-09-03T05:08:31;100646.78;;;12.25;95.77
15662;BME280;7931;52.274;10.470;2022-09-03T05:10:58;100647.88;;;12.23;96.75
15662;BME280;7931;52.274;10.470;2022-09-03T05:13:24;100646.19;;;12.22;97.02
15662;BME280;7931;52.274;10.470;2022-09-03T05:15:50;100644.50;;;12.21;99.20
15662;BME280;7931;52.274;10.470;2022-09-03T05:18:15;100649.09;;;12.30;96.78
15662;BME280;7931;52.274;10.470;2022-09-03T05:20:40;100640.97;;;12.31;97.91
15662;BME280;7931;52.274;10.470;2022-09-03T05:23:06;100644.13;;;12.25;100.00
15662;BME280;7931;52.274;10.470;2022-09-03T05:25:32;100635.50;;;12.22;100.00
15662;BME280;7931;52.274;10.470;2022-09-03T05:27:58;100646.91;;;12.35;100.00
15662;BME280;7931;52.274;10.470;2022-09-03T05:30:23;100637.19;;;12.45;99.92
15662;BME280;7931;52.274;10.470;2022-09-03T05:32:50;100644.72;;;12.63;96.13
15662;BME280;7931;52.274;10.470;2022-09-03T05:35:16;100642.72;;;12.76;94.13
15662;BME280;7931;52.274;10.470;2022-09-03T05:37:41;100637.97;;;12.91;93.04
15662;BME280;7931;52.274;10.470;2022-09-03T05:40:07;100634.75;;;13.08;91.05
15662;BME280;7931;52.274;10.470;2022-09-03T05:42:36;100638.22;;;13.20;90.18
15662;BME280;7931;52.274;10.470;2022-09-03T05:45:05;100645.28;;;13.32;90.66
15662;BME280;7931;52.274;10.470;2022-09-03T05:47:31;100641.31;;;13.47;91.00
15662;BME280;7931;52.274;10.470;2022-09-03T05:49:56;100641.97;;;13.60;90.09
15662;BME280;7931;52.274;10.470;2022-09-03T05:52:21;100646.56;;;13.70;90.72
15662;BME280;7931;52.274;10.470;2022-09-03T05:54:47;100643.28;;;14.08;87.57
15662;BME280;7931;52.274;10.470;2022-09-03T05:57:12;100650.56;;;14.27;83.21
15662;BME280;7931;52.274;10.470;2022-09-03T05:59:38;100652.56;;;14.44;82.28
15662;BME280;7931;52.274;10.470;2022-09-03T06:02:03;100653.66;;;14.62;81.63
15662;BME280;7931;52.274;10.470;2022-09-03T06:04:29;100652.44;;;14.76;80.28
15662;BME280;7931;52.274;10.470;2022-09-03T06:06:57;100656.56;;;14.90;78.09
15662;BME280;7931;52.274;10.470;2022-09-03T06:09:22;100649.66;;;15.07;77.07
15662;BME280;7931;52.274;10.470;2022-09-03T06:11:48;100647.16;;;15.15;76.42
15662;BME280;7931;52.274;10.470;2022-09-03T06:14:17;100648.00;;;15.25;75.28
15662;BME280;7931;52.274;10.470;2022-09-03T06:16:45;100654.22;;;15.35;75.56
15662;BME280;7931;52.274;10.470;2022-09-03T06:19:12;100648.00;;;15.54;74.17
15662;BME280;7931;52.274;10.470;2022-09-03T06:21:40;100656.19;;;15.62;74.29
15662;BME280;7931;52.274;10.470;2022-09-03T06:24:11;100659.44;;;15.66;73.15
15662;BME280;7931;52.274;10.470;2022-09-03T06:26:37;100659.00;;;15.71;73.33
15662;BME280;7931;52.274;10.470;2022-09-03T06:29:03;100656.06;;;15.74;72.94
15662;BME280;7931;52.274;10.470;2022-09-03T06:31:29;100651.63;;;16.02;73.53
15662;BME280;7931;52.274;10.470;2022-09-03T06:33:54;100650.88;;;16.09;71.02
15662;BME280;7931;52.274;10.470;2022-09-03T06:36:21;100651.59;;;16.11;70.08
15662;BME280;7931;52.274;10.470;2022-09-03T06:38:50;100652.09;;;16.34;69.78
15662;BME280;7931;52.274;10.470;2022-09-03T06:41:18;100652.72;;;16.46;69.14
15662;BME280;7931;52.274;10.470;2022-09-03T06:43:50;100649.66;;;16.41;67.27
15662;BME280;7931;52.274;10.470;2022-09-03T06:46:18;100651.19;;;16.43;67.65
15662;BME280;7931;52.274;10.470;2022-09-03T06:48:44;100656.50;;;16.53;67.44
15662;BME280;7931;52.274;10.470;2022-09-03T06:51:15;100656.50;;;16.53;66.67
15662;BME280;7931;52.274;10.470;2022-09-03T06:53:43;100650.56;;;16.59;66.56
15662;BME280;7931;52.274;10.470;2022-09-03T06:56:11;100666.06;;;16.65;65.37
15662;BME280;7931;52.274;10.470;2022-09-03T06:58:45;100655.03;;;16.68;65.75
15662;BME280;7931;52.274;10.470;2022-09-03T07:01:13;100657.25;;;16.83;65.59
15662;BME280;7931;52.274;10.470;2022-09-03T07:03:40;100656.88;;;16.95;64.96
15662;BME280;7931;52.274;10.470;2022-09-03T07:06:11;100657.13;;;17.02;63.94
15662;BME280;7931;52.274;10.470;2022-09-03T07:08:37;100658.31;;;17.17;64.18
15662;BME280;7931;52.274;10.470;2022-09-03T07:11:05;100663.44;;;17.11;63.89
15662;BME280;7931;52.274;10.470;2022-09-03T07:13:36;100659.91;;;17.10;62.63
15662;BME280;7931;52.274;10.470;2022-09-03T07:16:07;100666.44;;;17.26;62.96
15662;BME280;7931;52.274;10.470;2022-09-03T07:18:33;100659.84;;;17.38;62.56
15662;BME280;7931;52.274;10.470;2022-09-03T07:21:01;100656.53;;;17.44;61.62
15662;BME280;7931;52.274;10.470;2022-09-03T07:23:28;100657.44;;;17.53;61.18
15662;BME280;7931;52.274;10.470;2022-09-03T07:25:55;100666.91;;;17.57;60.76
15662;BME280;7931;52.274;10.470;2022-09-03T07:28:21;100665.22;;;17.56;60.55
15662;BME280;7931;52.274;10.470;2022-09-03T07:30:48;100662.53;;;17.73;60.91
15662;BME280;7931;52.274;10.470;2022-09-03T07:33:13;100658.69;;;17.76;60.66
15662;BME280;7931;52.274;10.470;2022-09-03T07:35:39;100659.13;;;17.71;60.38
15662;BME280;7931;52.274;10.470;2022-09-03T07:38:04;100658.03;;;17.82;59.80
15662;BME280;7931;52.274;10.470;2022-09-03T07:40:29;100658.97;;;17.91;59.87
15662;BME280;7931;52.274;10.470;2022-09-03T07:42:57;100650.56;;;18.20;60.05
15662;BME280;7931;52.274;10.470;2022-09-03T07:45:26;100649.78;;;18.36;59.27
15662;BME280;7931;52.274;10.470;2022-09-03T07:47:53;100653.31;;;18.62;58.71
15662;BME280;7931;52.274;10.470;2022-09-03T07:50:18;100662.28;;;18.71;57.63
15662;BME280;7931;52.274;10.470;2022-09-03T07:52:45;100654.19;;;18.71;57.46
15662;BME280;7931;52.274;10.470;2022-09-03T07:55:12;100655.06;;;18.45;56.90
15662;BME280;7931;52.274;10.470;2022-09-03T07:57:38;100650.00;;;18.77;56.87
15662;BME280;7931;52.274;10.470;2022-09-03T08:00:05;100650.50;;;18.80;56.72
15662;BME280;7931;52.274;10.470;2022-09-03T08:02:33;100651.63;;;19.12;56.03
15662;BME280;7931;52.274;10.470;2022-09-03T08:04:58;100651.28;;;19.23;55.11
15662;BME280;7931;52.274;10.470;2022-09-03T08:07:25;100653.31;;;19.13;54.83
15662;BME280;7931;52.274;10.470;2022-09-03T08:09:50;100654.16;;;19.21;54.82
15662;BME280;7931;52.274;10.470;2022-09-03T08:12:15;100653.34;;;19.37;53.81
15662;BME280;7931;52.274;10.470;2022-09-03T08:14:41;100650.84;;;19.60;53.45
15662;BME280;7931;52.274;10.470;2022-09-03T08:17:06;100660.13;;;19.90;52.99
15662;BME280;7931;52.274;10.470;2022-09-03T08:19:32;100658.25;;;19.99;53.66
15662;BME280;7931;52.274;10.470;2022-09-03T08:21:59;100660.97;;;19.91;52.60
15662;BME280;7931;52.274;10.470;2022-09-03T08:24:24;100660.28;;;19.97;52.57
15662;BME280;7931;52.274;10.470;2022-09-03T08:26:50;100650.81;;;20.01;51.98
15662;BME280;7931;52.274;10.470;2022-09-03T08:29:16;100651.84;;;20.00;52.19
15662;BME280;7931;52.274;10.470;2022-09-03T08:31:42;100649.78;;;20.10;51.64
15662;BME280;7931;52.274;10.470;2022-09-03T08:34:08;100649.19;;;20.39;51.88
15662;BME280;7931;52.274;10.470;2022-09-03T08:36:37;100646.94;;;20.67;51.11
15662;BME280;7931;52.274;10.470;2022-09-03T08:39:06;100650.06;;;20.79;50.56
15662;BME280;7931;52.274;10.470;2022-09-03T08:44:40;100650.84;;;20.96;48.70
15662;BME280;7931;52.274;10.470;2022-09-03T08:47:15;100659.16;;;21.17;47.72
15662;BME280;7931;52.274;10.470;2022-09-03T08:52:22;100653.69;;;21.34;46.70
15662;BME280;7931;52.274;10.470;2022-09-03T08:54:51;100655.72;;;21.32;45.16
15662;BME280;7931;52.274;10.470;2022-09-03T08:57:20;100658.63;;;21.53;45.20
15662;BME280;7931;52.274;10.470;2022-09-03T08:59:50;100661.47;;;21.74;44.41
15662;BME280;7931;52.274;10.470;2022-09-03T09:02:52;100653.19;;;21.53;43.31
15662;BME280;7931;52.274;10.470;2022-09-03T09:05:26;100658.97;;;21.50;42.28
15662;BME280;7931;52.274;10.470;2022-09-03T09:08:13;100655.69;;;21.77;42.40
15662;BME280;7931;52.274;10.470;2022-09-03T09:10:47;100648.44;;;21.93;42.17
15662;BME280;7931;52.274;10.470;2022-09-03T09:16:39;100646.63;;;22.23;41.06
15662;BME280;7931;52.274;10.470;2022-09-03T09:19:59;100650.09;;;22.17;40.52
15662;BME280;7931;52.274;10.470;2022-09-03T09:22:08;100650.19;;;22.23;39.68
15662;BME280;7931;52.274;10.470;2022-09-03T09:24:38;100641.75;;;22.48;39.82
15662;BME280;7931;52.274;10.470;2022-09-03T09:27:05;100638.97;;;22.26;38.28
15662;BME280;7931;52.274;10.470;2022-09-03T09:29:34;100643.22;;;22.80;39.19
15662;BME280;7931;52.274;10.470;2022-09-03T09:32:00;100635.88;;;22.44;37.14
15662;BME280;7931;52.274;10.470;2022-09-03T09:34:26;100633.53;;;22.26;37.95
15662;BME280;7931;52.274;10.470;2022-09-03T09:36:53;100646.31;;;22.92;37.87
15662;BME280;7931;52.274;10.470;2022-09-03T09:39:20;100653.97;;;23.03;37.72
15662;BME280;7931;52.274;10.470;2022-09-03T09:41:57;100639.63;;;22.58;38.06
15662;BME280;7931;52.274;10.470;2022-09-03T09:44:24;100642.94;;;22.90;37.88
15662;BME280;7931;52.274;10.470;2022-09-03T09:46:50;100638.13;;;22.41;36.41
15662;BME280;7931;52.274;10.470;2022-09-03T09:49:30;100631.59;;;22.35;36.49
15662;BME280;7931;52.274;10.470;2022-09-03T09:52:23;100635.81;;;23.03;36.59
15662;BME280;7931;52.274;10.470;2022-09-03T09:54:51;100642.75;;;22.91;37.00
15662;BME280;7931;52.274;10.470;2022-09-03T09:57:24;100653.91;;;22.22;36.40
15662;BME280;7931;52.274;10.470;2022-09-03T10:00:02;100644.00;;;22.59;36.44
15662;BME280;7931;52.274;10.470;2022-09-03T10:02:33;100638.59;;;22.59;36.93
15662;BME280;7931;52.274;10.470;2022-09-03T10:05:20;100633.88;;;22.97;37.37
15662;BME280;7931;52.274;10.470;2022-09-03T10:07:58;100625.16;;;22.87;36.41
15662;BME280;7931;52.274;10.470;2022-09-03T10:10:25;100630.84;;;23.28;36.88
15662;BME280;7931;52.274;10.470;2022-09-03T10:15:37;100630.44;;;23.10;36.79
15662;BME280;7931;52.274;10.470;2022-09-03T10:18:15;100617.28;;;23.07;36.27
15662;BME280;7931;52.274;10.470;2022-09-03T10:20:57;100620.59;;;23.30;36.60
15662;BME280;7931;52.274;10.470;2022-09-03T10:23:34;100622.63;;;23.43;36.42
15662;BME280;7931;52.274;10.470;2022-09-03T10:26:03;100633.50;;;23.22;35.95
15662;BME280;7931;52.274;10.470;2022-09-03T10:28:33;100618.03;;;23.22;36.97
15662;BME280;7931;52.274;10.470;2022-09-03T10:31:35;100606.22;;;23.08;36.97
15662;BME280;7931;52.274;10.470;2022-09-03T10:34:21;100609.16;;;23.35;36.47
15662;BME280;7931;52.274;10.470;2022-09-03T10:42:48;100603.06;;;23.54;36.11
15662;BME280;7931;52.274;10.470;2022-09-03T10:48:34;100602.38;;;23.24;35.32
15662;BME280;7931;52.274;10.470;2022-09-03T10:53:57;100594.34;;;23.80;35.39
15662;BME280;7931;52.274;10.470;2022-09-03T10:56:56;100592.91;;;24.19;34.52
15662;BME280;7931;52.274;10.470;2022-09-03T10:59:38;100598.50;;;23.55;35.99
15662;BME280;7931;52.274;10.470;2022-09-03T11:02:28;100597.13;;;23.44;35.70
15662;BME280;7931;52.274;10.470;2022-09-03T11:05:03;100579.69;;;23.32;35.42
15662;BME280;7931;52.274;10.470;2022-09-03T11:07:39;100586.47;;;23.43;35.34
15662;BME280;7931;52.274;10.470;2022-09-03T11:10:18;100587.97;;;23.45;35.52
15662;BME280;7931;52.274;10.470;2022-09-03T11:13:20;100579.59;;;23.68;35.30
15662;BME280;7931;52.274;10.470;2022-09-03T11:15:51;100587.13;;;23.66;35.98
15662;BME280;7931;52.274;10.470;2022-09-03T11:18:22;100580.91;;;24.07;35.36
15662;BME280;7931;52.274;10.470;2022-09-03T11:20:50;100574.19;;;24.03;34.63
15662;BME280;7931;52.274;10.470;2022-09-03T11:23:18;100573.06;;;23.91;34.45
15662;BME280;7931;52.274;10.470;2022-09-03T11:25:55;100574.19;;;24.03;35.75
15662;BME280;7931;52.274;10.470;2022-09-03T11:28:29;100574.69;;;23.57;35.46
15662;BME280;7931;52.274;10.470;2022-09-03T11:31:15;100576.50;;;24.06;35.27
15662;BME280;7931;52.274;10.470;2022-09-03T11:33:46;100582.75;;;24.00;35.88
15662;BME280;7931;52.274;10.470;2022-09-03T11:36:22;100569.88;;;24.15;34.55
15662;BME280;7931;52.274;10.470;2022-09-03T11:38:49;100570.75;;;24.70;34.97
15662;BME280;7931;52.274;10.470;2022-09-03T11:41:27;100576.16;;;24.22;34.84
15662;BME280;7931;52.274;10.470;2022-09-03T11:44:10;100573.06;;;23.91;34.85
15662;BME280;7931;52.274;10.470;2022-09-03T11:46:52;100570.81;;;24.35;34.43
15662;BME280;7931;52.274;10.470;2022-09-03T11:49:28;100571.22;;;23.98;34.08
15662;BME280;7931;52.274;10.470;2022-09-03T11:52:03;100566.78;;;24.66;35.36
15662;BME280;7931;52.274;10.470;2022-09-03T11:54:31;100576.59;;;24.19;34.40
15662;BME280;7931;52.274;10.470;2022-09-03T11:57:24;100576.09;;;24.37;34.74
15662;BME280;7931;52.274;10.470;2022-09-03T11:59:51;100571.03;;;23.99;34.47
15662;BME280;7931;52.274;10.470;2022-09-03T12:02:27;100566.56;;;24.26;33.90
15662;BME280;7931;52.274;10.470;2022-09-03T12:05:15;100562.97;;;24.60;33.77
15662;BME280;7931;52.274;10.470;2022-09-03T12:08:08;100560.09;;;24.75;34.30
15662;BME280;7931;52.274;10.470;2022-09-03T12:10:48;100562.78;;;24.62;33.63
15662;BME280;7931;52.274;10.470;2022-09-03T12:13:27;100557.53;;;24.54;33.45
15662;BME280;7931;52.274;10.470;2022-09-03T12:16:28;100556.38;;;24.96;33.26
15662;BME280;7931;52.274;10.470;2022-09-03T12:19:03;100549.28;;;25.02;33.01
15662;BME280;7931;52.274;10.470;2022-09-03T12:21:37;100555.00;;;24.52;33.85
15662;BME280;7931;52.274;10.470;2022-09-03T12:24:02;100546.41;;;24.49;33.19
15662;BME280;7931;52.274;10.470;2022-09-03T12:26:28;100552.44;;;25.12;33.76
15662;BME280;7931;52.274;10.470;2022-09-03T12:28:55;100550.63;;;24.17;33.80
15662;BME280;7931;52.274;10.470;2022-09-03T12:31:27;100541.59;;;24.51;33.74
15662;BME280;7931;52.274;10.470;2022-09-03T12:33:59;100538.13;;;24.83;33.92
15662;BME280;7931;52.274;10.470;2022-09-03T12:36:34;100539.84;;;24.98;33.68
15662;BME280;7931;52.274;10.470;2022-09-03T12:39:17;100542.13;;;24.87;33.48
15662;BME280;7931;52.274;10.470;2022-09-03T12:44:39;100526.00;;;24.93;33.12
15662;BME280;7931;52.274;10.470;2022-09-03T12:47:13;100531.44;;;24.86;32.65
15662;BME280;7931;52.274;10.470;2022-09-03T12:49:40;100530.16;;;24.75;33.04
15662;BME280;7931;52.274;10.470;2022-09-03T12:52:28;100529.56;;;24.93;33.27
15662;BME280;7931;52.274;10.470;2022-09-03T12:55:05;100523.06;;;24.94;32.49
15662;BME280;7931;52.274;10.470;2022-09-03T12:57:36;100524.59;;;25.36;32.06
15662;BME280;7931;52.274;10.470;2022-09-03T13:00:07;100513.25;;;25.13;32.22
15662;BME280;7931;52.274;10.470;2022-09-03T13:02:45;100516.75;;;24.67;33.58
15662;BME280;7931;52.274;10.470;2022-09-03T13:05:18;100516.59;;;25.02;32.25
15662;BME280;7931;52.274;10.470;2022-09-03T13:07:48;100514.91;;;25.01;32.15
15662;BME280;7931;52.274;10.470;2022-09-03T13:10:26;100512.03;;;25.16;32.14
15662;BME280;7931;52.274;10.470;2022-09-03T13:12:57;100503.38;;;24.99;32.47
15662;BME280;7931;52.274;10.470;2022-09-03T13:15:24;100508.53;;;24.54;33.09
15662;BME280;7931;52.274;10.470;2022-09-03T13:17:56;100498.25;;;24.49;33.00
15662;BME280;7931;52.274;10.470;2022-09-03T13:20:42;100498.97;;;24.71;33.21
15662;BME280;7931;52.274;10.470;2022-09-03T13:28:58;100499.44;;;25.08;32.56
15662;BME280;7931;52.274;10.470;2022-09-03T13:31:52;100503.00;;;25.28;31.99
15662;BME280;7931;52.274;10.470;2022-09-03T13:34:30;100505.72;;;25.28;32.01
15662;BME280;7931;52.274;10.470;2022-09-03T13:37:22;100510.72;;;24.98;33.00
15662;BME280;7931;52.274;10.470;2022-09-03T13:39:56;100499.19;;;25.03;32.94
15662;BME280;7931;52.274;10.470;2022-09-03T13:42:31;100497.69;;;24.67;33.14
15662;BME280;7931;52.274;10.470;2022-09-03T13:45:19;100500.59;;;24.59;33.33
15662;BME280;7931;52.274;10.470;2022-09-03T13:47:50;100496.72;;;24.33;33.02
15662;BME280;7931;52.274;10.470;2022-09-03T13:50:53;100497.06;;;24.72;33.11
15662;BME280;7931;52.274;10.470;2022-09-03T13:53:38;100494.56;;;24.77;32.52
15662;BME280;7931;52.274;10.470;2022-09-03T13:56:15;100497.75;;;25.13;32.12
15662;BME280;7931;52.274;10.470;2022-09-03T13:59:00;100499.66;;;25.13;31.85
15662;BME280;7931;52.274;10.470;2022-09-03T14:04:28;100501.22;;;24.61;32.77
15662;BME280;7931;52.274;10.470;2022-09-03T14:07:05;100501.75;;;25.18;31.92
15662;BME280;7931;52.274;10.470;2022-09-03T14:09:53;100500.03;;;24.90;32.13